Terminal Aerodrome Forecast
Issued by NWS Corpus Christi, TX

Home | Current Version | Previous Version | Text Only | Print | Product List | Glossary On
Versions: 1 2 3 4 5 6 7 8 9 10 11 12 13 14 15 16 17 18 19
000
FTUS44 KCRP 232334
TAFVCT
TAF
KVCT 232334Z 2400/2424 VRB03KT P6SM SKC
     FM241000 VRB02KT 5SM BR SCT250
      TEMPO 2410/2413 2SM BR
     FM241400 VRB03KT P6SM SCT250
     FM242000 12010G15KT P6SM BKN200=

USA.gov is the U.S. government's official web portal to all federal, state and local government web resources and services.